Krasnovishersk, Russia
Current Conditions -  °F | °C
As of 1:00 AM on Wednesday 22 Oct 2014 (Local Time) from USPP Reporting Station
Clear Clear  
Wind Chill:   Ceiling: Unl
Heat Index: 16°   Visibility: 6mi
Dew Point: 10°   Wind: 11mph
Humidity: 79%   Direction: 70°ENE
Pressure: 29.74"   Gusts: NA
Location:  60.4°N, 57.08°E
Report Text: USPP 212000Z 07005MPS CAVOK M09/M12 Q1007 21420149 NOSIG RMKQFE745/0993
Loading
Personal Weather Stations






























Interactive Weather Map
Tropical Storm Tracking
New forecast layout! Learn more

10-Day Weather Forecast

Advertisements
Track Severe Weather on mobile